createdAt,value
2023-03-06T00:02:15.426Z,-0.19
2023-03-06T00:04:43.513Z,-0.20
2023-03-06T00:07:11.582Z,-0.22
2023-03-06T00:09:39.650Z,-0.29
2023-03-06T00:12:08.469Z,-0.29
2023-03-06T00:14:36.416Z,-0.29
2023-03-06T00:17:04.426Z,-0.34
2023-03-06T00:19:32.488Z,-0.39
2023-03-06T00:22:00.409Z,-0.41
2023-03-06T00:24:28.908Z,-0.42
2023-03-06T00:26:56.881Z,-0.40
2023-03-06T00:29:24.993Z,-0.49
2023-03-06T00:31:53.333Z,-0.54
2023-03-06T00:34:21.487Z,-0.60
2023-03-06T00:36:49.597Z,-0.62
2023-03-06T00:39:17.651Z,-0.63
2023-03-06T00:41:47.061Z,-0.61
2023-03-06T00:44:15.435Z,-0.62
2023-03-06T00:46:43.712Z,-0.53
2023-03-06T00:49:12.007Z,-0.53
2023-03-06T00:51:40.078Z,-0.50
2023-03-06T00:54:07.990Z,-0.54
2023-03-06T00:56:36.006Z,-0.58
2023-03-06T00:59:04.283Z,-0.55
2023-03-06T01:01:32.282Z,-0.63
2023-03-06T01:04:00.331Z,-0.67
2023-03-06T01:06:28.426Z,-0.70
2023-03-06T01:08:56.482Z,-0.67
2023-03-06T01:11:26.798Z,-0.65
2023-03-06T01:13:54.879Z,-0.62
2023-03-06T01:16:23.824Z,-0.60
2023-03-06T01:18:52.039Z,-0.61
2023-03-06T01:21:20.020Z,-0.58
2023-03-06T01:23:48.082Z,-0.58
2023-03-06T01:26:16.476Z,-0.55
2023-03-06T01:28:44.739Z,-0.57
2023-03-06T01:31:12.767Z,-0.60
2023-03-06T01:33:41.095Z,-0.58
2023-03-06T01:36:11.625Z,-0.66
2023-03-06T01:38:40.048Z,-0.67
2023-03-06T01:41:08.283Z,-0.71
2023-03-06T01:43:37.965Z,-0.75
2023-03-06T01:46:21.395Z,-0.79
2023-03-06T01:48:52.064Z,-0.82
2023-03-06T01:51:20.132Z,-0.81
2023-03-06T01:53:49.136Z,-0.82
2023-03-06T01:56:17.155Z,-0.84
2023-03-06T01:58:45.900Z,-0.84
2023-03-06T02:01:14.840Z,-0.90
2023-03-06T02:03:43.780Z,-0.95
2023-03-06T02:06:12.195Z,-0.96
2023-03-06T02:08:40.444Z,-0.97
2023-03-06T02:11:08.573Z,-1.00
2023-03-06T02:13:37.214Z,-1.01
2023-03-06T02:16:05.586Z,-1.08
2023-03-06T02:18:33.805Z,-1.10
2023-03-06T02:21:13.609Z,-1.03
2023-03-06T02:24:01.958Z,-1.01
2023-03-06T02:26:30.543Z,-1.00
2023-03-06T02:28:59.542Z,-1.01
2023-03-06T02:31:30.415Z,-0.95
2023-03-06T02:34:07.869Z,-1.02
2023-03-06T02:36:41.474Z,-0.98
2023-03-06T02:39:10.558Z,-0.98
2023-03-06T02:41:38.875Z,-1.04
2023-03-06T02:44:07.639Z,-1.05
2023-03-06T02:46:36.475Z,-1.07
2023-03-06T02:49:04.603Z,-1.07
2023-03-06T02:51:32.777Z,-1.06
2023-03-06T02:54:00.802Z,-1.13
2023-03-06T02:56:28.710Z,-1.11
2023-03-06T02:58:58.229Z,-1.05
2023-03-06T03:01:26.571Z,-1.01
2023-03-06T03:03:54.681Z,-1.04
2023-03-06T03:06:23.271Z,-1.21
2023-03-06T03:08:51.653Z,-1.24
2023-03-06T03:11:19.719Z,-1.25
2023-03-06T03:13:48.711Z,-1.24
2023-03-06T03:16:21.267Z,-1.32
2023-03-06T03:18:51.348Z,-1.40
2023-03-06T03:21:20.817Z,-1.38
2023-03-06T03:23:49.313Z,-1.33
2023-03-06T03:26:18.879Z,-1.33
2023-03-06T03:28:55.584Z,-1.24
2023-03-06T03:31:23.885Z,-1.19
2023-03-06T03:33:52.502Z,-1.34
2023-03-06T03:36:20.932Z,-1.42
2023-03-06T03:38:50.234Z,-1.56
2023-03-06T03:41:18.335Z,-1.58
2023-03-06T03:43:47.309Z,-1.53
2023-03-06T03:46:15.618Z,-1.53
2023-03-06T03:48:43.881Z,-1.54
2023-03-06T03:51:13.897Z,-1.62
2023-03-06T03:53:45.164Z,-1.61
2023-03-06T03:56:14.735Z,-1.65
2023-03-06T03:58:57.905Z,-1.80
2023-03-06T04:01:27.471Z,-1.95
2023-03-06T04:03:56.201Z,-2.10
2023-03-06T04:06:24.139Z,-2.18
2023-03-06T04:08:52.900Z,-2.22
2023-03-06T04:11:21.039Z,-2.24
2023-03-06T04:13:49.575Z,-2.15
2023-03-06T04:16:18.163Z,-2.09
2023-03-06T04:18:46.438Z,-2.05
2023-03-06T04:21:14.483Z,-1.96
2023-03-06T04:23:43.122Z,-2.00
2023-03-06T04:26:11.266Z,-2.03
2023-03-06T04:28:39.307Z,-2.15
2023-03-06T04:31:07.861Z,-2.34
2023-03-06T04:33:36.494Z,-2.34
2023-03-06T04:36:04.904Z,-2.28
2023-03-06T04:38:33.527Z,-2.28
2023-03-06T04:41:02.669Z,-2.32
2023-03-06T04:43:31.027Z,-2.26
2023-03-06T04:45:59.503Z,-2.26
2023-03-06T04:48:27.656Z,-2.33
2023-03-06T04:50:55.698Z,-2.26
2023-03-06T04:53:23.774Z,-2.33
2023-03-06T04:55:51.676Z,-2.29
2023-03-06T04:58:20.940Z,-2.32
2023-03-06T05:00:49.089Z,-2.30
2023-03-06T05:03:17.394Z,-2.26
2023-03-06T05:05:46.698Z,-2.26
2023-03-06T05:08:15.721Z,-2.28
2023-03-06T05:10:44.395Z,-2.36
2023-03-06T05:13:12.859Z,-2.30
2023-03-06T05:15:42.192Z,-2.40
2023-03-06T05:18:10.231Z,-2.38
2023-03-06T05:20:38.310Z,-2.30
2023-03-06T05:23:06.387Z,-2.24
2023-03-06T05:25:34.453Z,-2.34
2023-03-06T05:28:02.750Z,-2.41
2023-03-06T05:30:31.027Z,-2.41
2023-03-06T05:32:59.972Z,-2.30
2023-03-06T05:35:28.250Z,-2.29
2023-03-06T05:37:56.736Z,-2.20
2023-03-06T05:40:24.980Z,-2.21
2023-03-06T05:42:53.031Z,-2.03
2023-03-06T05:45:21.707Z,-1.99
2023-03-06T05:47:49.921Z,-1.98
2023-03-06T05:50:18.375Z,-1.85
2023-03-06T05:52:46.488Z,-1.76
2023-03-06T05:55:15.749Z,-1.75
2023-03-06T05:57:44.020Z,-1.65
2023-03-06T06:00:13.238Z,-1.48
2023-03-06T06:02:42.377Z,-1.20
2023-03-06T06:05:12.958Z,-0.88
2023-03-06T06:07:41.774Z,-0.63
2023-03-06T06:10:11.169Z,-0.48
2023-03-06T06:12:39.320Z,-0.43
2023-03-06T06:15:08.028Z,-0.39
2023-03-06T06:17:36.109Z,-0.33
2023-03-06T06:20:04.349Z,-0.32
2023-03-06T06:22:32.533Z,-0.31
2023-03-06T06:25:00.810Z,-0.27
2023-03-06T06:27:28.815Z,-0.24
2023-03-06T06:29:57.572Z,-0.17
2023-03-06T06:32:25.594Z,-0.16
2023-03-06T06:34:54.097Z,0.08
2023-03-06T06:37:22.476Z,0.22
2023-03-06T06:39:50.604Z,0.40
2023-03-06T06:42:31.450Z,0.62
2023-03-06T06:45:01.275Z,0.95
2023-03-06T06:47:29.804Z,1.23
2023-03-06T06:49:57.984Z,1.29
2023-03-06T06:52:26.297Z,1.37
2023-03-06T06:54:54.541Z,1.42
2023-03-06T06:57:22.567Z,1.43
2023-03-06T06:59:53.439Z,1.46
2023-03-06T07:02:22.059Z,1.57
2023-03-06T07:05:03.086Z,1.50
2023-03-06T07:07:36.706Z,1.53
2023-03-06T07:10:06.575Z,1.48
2023-03-06T07:12:36.231Z,1.47
2023-03-06T07:15:05.376Z,1.49
2023-03-06T07:17:33.476Z,1.56
2023-03-06T07:20:02.178Z,1.65
2023-03-06T07:22:44.772Z,1.78
2023-03-06T07:25:19.911Z,1.98
2023-03-06T07:27:53.437Z,2.03
2023-03-06T07:30:23.470Z,2.15
2023-03-06T07:32:55.496Z,2.18
2023-03-06T07:35:23.876Z,2.15
2023-03-06T07:37:52.360Z,2.14
2023-03-06T07:40:21.331Z,2.25
2023-03-06T07:42:49.736Z,2.20
2023-03-06T07:45:20.272Z,2.23
2023-03-06T07:47:52.239Z,2.40
2023-03-06T07:50:21.026Z,2.65
2023-03-06T07:52:49.644Z,2.80
2023-03-06T07:55:18.621Z,2.89
2023-03-06T07:57:49.551Z,3.11
2023-03-06T08:00:18.845Z,3.34
2023-03-06T08:02:47.107Z,3.39
2023-03-06T08:05:16.394Z,3.41
2023-03-06T08:07:45.276Z,3.46
2023-03-06T08:10:14.417Z,3.49
2023-03-06T08:12:42.496Z,3.55
2023-03-06T08:15:11.939Z,3.78
2023-03-06T08:17:40.082Z,3.90
2023-03-06T08:20:08.475Z,3.99
2023-03-06T08:22:36.576Z,4.18
2023-03-06T08:25:06.052Z,4.20
2023-03-06T08:27:34.657Z,4.19
2023-03-06T08:30:03.026Z,4.28
2023-03-06T08:32:31.651Z,4.18
2023-03-06T08:35:02.004Z,3.96
2023-03-06T08:37:30.215Z,4.23
2023-03-06T08:39:59.007Z,4.26
2023-03-06T08:42:27.466Z,4.18
2023-03-06T08:44:55.838Z,4.07
2023-03-06T08:47:23.806Z,4.16
2023-03-06T08:49:51.920Z,4.18
2023-03-06T08:52:20.124Z,4.16
2023-03-06T08:54:48.434Z,4.07
2023-03-06T08:57:16.508Z,3.98
2023-03-06T08:59:44.811Z,3.97
2023-03-06T09:02:13.249Z,3.95
2023-03-06T09:04:42.072Z,3.94
2023-03-06T09:07:10.029Z,3.89
2023-03-06T09:09:38.246Z,3.84
2023-03-06T09:12:06.698Z,3.85
2023-03-06T09:14:34.995Z,3.74
2023-03-06T09:17:02.917Z,3.68
2023-03-06T09:19:30.852Z,3.71
2023-03-06T09:22:01.452Z,3.74
2023-03-06T09:24:29.520Z,3.75
2023-03-06T09:26:57.575Z,3.83
2023-03-06T09:29:25.804Z,3.95
2023-03-06T09:31:53.978Z,3.96
2023-03-06T09:34:22.325Z,3.91
2023-03-06T09:36:56.578Z,4.06
2023-03-06T09:39:26.392Z,4.13
2023-03-06T09:41:55.452Z,4.30
2023-03-06T09:44:26.147Z,4.44
2023-03-06T09:47:07.268Z,4.39
2023-03-06T09:49:41.590Z,4.22
2023-03-06T09:52:28.360Z,4.20
2023-03-06T09:54:59.497Z,4.13
2023-03-06T09:57:29.227Z,4.15
2023-03-06T10:00:03.475Z,4.17
2023-03-06T10:02:39.202Z,4.22
2023-03-06T10:05:12.740Z,4.38
2023-03-06T10:07:49.467Z,4.42
2023-03-06T10:10:19.748Z,4.52
2023-03-06T10:12:53.685Z,4.43
2023-03-06T10:15:24.264Z,4.35
2023-03-06T10:17:53.469Z,4.51
2023-03-06T10:20:24.358Z,4.58
2023-03-06T10:23:03.204Z,4.64
2023-03-06T10:25:37.721Z,4.78
2023-03-06T10:28:11.921Z,4.88
2023-03-06T10:30:49.676Z,4.87
2023-03-06T10:33:23.091Z,4.86
2023-03-06T10:35:53.218Z,4.75
2023-03-06T10:38:30.804Z,4.80
2023-03-06T10:41:17.024Z,4.83
2023-03-06T10:44:05.312Z,4.98
2023-03-06T10:46:34.473Z,5.03
2023-03-06T10:49:09.314Z,5.03
2023-03-06T10:51:37.516Z,4.94
2023-03-06T10:54:14.869Z,4.86
2023-03-06T10:56:43.660Z,4.93
2023-03-06T10:59:19.254Z,5.10
2023-03-06T11:01:51.486Z,5.29
2023-03-06T11:04:33.479Z,5.46
2023-03-06T11:07:15.729Z,5.55
2023-03-06T11:09:48.134Z,5.69
2023-03-06T11:12:23.183Z,5.87
2023-03-06T11:15:06.705Z,6.07
2023-03-06T11:17:36.583Z,5.95
2023-03-06T11:20:16.064Z,6.01
2023-03-06T11:22:49.876Z,5.92
2023-03-06T11:25:19.058Z,6.03
2023-03-06T11:27:51.963Z,6.09
2023-03-06T11:30:23.798Z,5.90
2023-03-06T11:32:57.803Z,6.08
2023-03-06T11:35:28.577Z,6.03
2023-03-06T11:38:00.867Z,5.84
2023-03-06T11:40:36.839Z,5.80
2023-03-06T11:43:23.442Z,5.70
2023-03-06T11:46:11.767Z,5.76
2023-03-06T11:48:46.720Z,5.61
2023-03-06T11:51:17.583Z,5.72
2023-03-06T11:53:45.702Z,5.94
2023-03-06T11:56:20.352Z,6.09
2023-03-06T11:59:07.971Z,6.15
2023-03-06T12:01:54.905Z,6.05
2023-03-06T12:04:43.741Z,6.20
2023-03-06T12:07:24.229Z,6.22
2023-03-06T12:10:11.469Z,6.43
2023-03-06T12:13:07.284Z,6.60
2023-03-06T12:15:41.471Z,6.60
2023-03-06T12:18:19.998Z,6.47
2023-03-06T12:21:01.315Z,6.46
2023-03-06T12:23:42.377Z,6.39
2023-03-06T12:26:29.115Z,6.57
2023-03-06T12:28:57.046Z,6.54
2023-03-06T12:31:34.381Z,6.42
2023-03-06T12:34:02.486Z,6.58
2023-03-06T12:36:52.599Z,6.79
2023-03-06T12:39:26.295Z,6.79
2023-03-06T12:41:54.269Z,6.90
2023-03-06T12:44:31.551Z,6.99
2023-03-06T12:47:08.415Z,6.89
2023-03-06T12:49:40.397Z,6.74
2023-03-06T12:52:09.787Z,6.55
2023-03-06T12:54:40.033Z,6.60
2023-03-06T12:57:09.237Z,6.67
2023-03-06T12:59:44.352Z,6.69
2023-03-06T13:02:35.481Z,6.67
2023-03-06T13:05:22.526Z,6.70
2023-03-06T13:08:09.192Z,6.80
2023-03-06T13:10:39.413Z,6.85
2023-03-06T13:13:26.662Z,6.79
2023-03-06T13:16:03.949Z,6.87
2023-03-06T13:18:35.207Z,6.67
2023-03-06T13:21:04.707Z,6.62
2023-03-06T13:23:32.668Z,6.51
2023-03-06T13:26:03.585Z,6.36
2023-03-06T13:28:41.091Z,6.41
2023-03-06T13:31:21.303Z,6.53
2023-03-06T13:33:54.658Z,6.52
2023-03-06T13:36:29.031Z,6.55
2023-03-06T13:39:01.287Z,6.54
2023-03-06T13:41:32.164Z,6.55
2023-03-06T13:44:19.538Z,6.62
2023-03-06T13:46:56.611Z,6.63
2023-03-06T13:49:25.668Z,6.60
2023-03-06T13:51:54.284Z,6.57
2023-03-06T13:54:47.345Z,6.56
2023-03-06T13:57:18.598Z,6.48
2023-03-06T13:59:54.422Z,6.55
2023-03-06T14:02:25.093Z,6.66
2023-03-06T14:04:53.868Z,6.72
2023-03-06T14:07:23.275Z,6.81
2023-03-06T14:09:59.657Z,6.80
2023-03-06T14:12:34.071Z,6.85
2023-03-06T14:15:11.946Z,6.81
2023-03-06T14:17:46.511Z,6.69
2023-03-06T14:20:16.213Z,6.60
2023-03-06T14:22:44.407Z,6.59
2023-03-06T14:25:18.532Z,6.57
2023-03-06T14:27:52.534Z,6.46
2023-03-06T14:30:25.208Z,6.41
2023-03-06T14:32:55.049Z,6.40
2023-03-06T14:35:25.587Z,6.39
2023-03-06T14:37:55.803Z,6.32
2023-03-06T14:40:30.333Z,6.37
2023-03-06T14:43:20.426Z,6.41
2023-03-06T14:45:49.578Z,6.41
2023-03-06T14:48:17.547Z,6.38
2023-03-06T14:50:53.621Z,6.33
2023-03-06T14:53:23.324Z,6.25
2023-03-06T14:55:53.645Z,6.22
2023-03-06T14:58:26.127Z,6.07
2023-03-06T15:00:56.293Z,6.06
2023-03-06T15:03:34.463Z,6.00
2023-03-06T15:06:03.245Z,5.96
2023-03-06T15:08:33.879Z,5.91
2023-03-06T15:11:03.260Z,5.89
2023-03-06T15:13:32.178Z,5.91
2023-03-06T15:16:00.336Z,5.94
2023-03-06T15:18:29.913Z,5.95
2023-03-06T15:21:07.977Z,5.88
2023-03-06T15:23:37.982Z,5.80
2023-03-06T15:26:24.285Z,5.76
2023-03-06T15:29:18.575Z,5.75
2023-03-06T15:31:46.898Z,5.73
2023-03-06T15:34:17.584Z,5.65
2023-03-06T15:36:49.322Z,5.62
2023-03-06T15:39:34.334Z,5.58
2023-03-06T15:42:04.418Z,5.58
2023-03-06T15:44:33.329Z,5.55
2023-03-06T15:47:09.296Z,5.52
2023-03-06T15:49:38.772Z,5.49
2023-03-06T15:52:07.595Z,5.43
2023-03-06T15:54:36.100Z,5.40
2023-03-06T15:57:05.578Z,5.36
2023-03-06T15:59:39.075Z,5.32
2023-03-06T16:02:16.762Z,5.27
2023-03-06T16:04:45.668Z,5.19
2023-03-06T16:07:14.379Z,5.12
2023-03-06T16:09:43.127Z,5.06
2023-03-06T16:12:15.249Z,5.02
2023-03-06T16:14:43.861Z,5.00
2023-03-06T16:17:12.383Z,5.00
2023-03-06T16:19:40.799Z,5.02
2023-03-06T16:22:09.053Z,5.02
2023-03-06T16:24:37.485Z,5.00
2023-03-06T16:27:05.720Z,4.99
2023-03-06T16:29:34.184Z,4.98
2023-03-06T16:32:02.634Z,4.96
2023-03-06T16:34:31.154Z,4.92
2023-03-06T16:36:59.084Z,4.87
2023-03-06T16:39:27.102Z,4.87
2023-03-06T16:41:55.574Z,4.85
2023-03-06T16:44:23.747Z,4.80
2023-03-06T16:46:51.923Z,4.76
2023-03-06T16:49:22.446Z,4.72
2023-03-06T16:51:51.286Z,4.68
2023-03-06T16:54:20.192Z,4.65
2023-03-06T16:56:48.420Z,4.62
2023-03-06T16:59:16.401Z,4.57
2023-03-06T17:01:44.817Z,4.52
2023-03-06T17:04:12.953Z,4.46
2023-03-06T17:06:42.111Z,4.41
2023-03-06T17:09:14.658Z,4.33
2023-03-06T17:11:47.019Z,4.25
2023-03-06T17:14:15.107Z,4.21
2023-03-06T17:16:43.046Z,4.13
2023-03-06T17:19:14.416Z,4.06
2023-03-06T17:21:43.294Z,3.97
2023-03-06T17:24:11.462Z,3.94
2023-03-06T17:26:40.303Z,3.94
2023-03-06T17:29:09.657Z,3.90
2023-03-06T17:31:38.197Z,3.81
2023-03-06T17:34:06.465Z,3.78
2023-03-06T17:36:34.715Z,3.78
2023-03-06T17:39:03.245Z,3.78
2023-03-06T17:41:33.099Z,3.79
2023-03-06T17:44:02.052Z,3.77
2023-03-06T17:46:32.396Z,3.74
2023-03-06T17:49:01.021Z,3.71
2023-03-06T17:51:29.319Z,3.66
2023-03-06T17:53:57.633Z,3.66
2023-03-06T17:56:26.142Z,3.66
2023-03-06T17:58:54.740Z,3.66
2023-03-06T18:01:23.987Z,3.69
2023-03-06T18:03:52.097Z,3.67
2023-03-06T18:06:22.423Z,3.63
2023-03-06T18:08:52.688Z,3.61
2023-03-06T18:11:21.948Z,3.63
2023-03-06T18:13:50.515Z,3.61
2023-03-06T18:16:20.966Z,3.53
2023-03-06T18:18:51.904Z,3.48
2023-03-06T18:21:20.732Z,3.45
2023-03-06T18:23:48.794Z,3.42
2023-03-06T18:26:27.024Z,3.37
2023-03-06T18:28:56.461Z,3.34
2023-03-06T18:31:30.487Z,3.27
2023-03-06T18:34:01.042Z,3.21
2023-03-06T18:36:31.342Z,3.19
2023-03-06T18:39:00.889Z,3.17
2023-03-06T18:41:28.935Z,3.10
2023-03-06T18:43:58.427Z,3.07
2023-03-06T18:46:29.220Z,3.05
2023-03-06T18:48:57.663Z,3.03
2023-03-06T18:51:26.097Z,3.00
2023-03-06T18:53:57.017Z,2.91
2023-03-06T18:56:25.377Z,2.86
2023-03-06T18:58:54.091Z,2.80
2023-03-06T19:01:23.034Z,2.76
2023-03-06T19:03:51.246Z,2.77
2023-03-06T19:06:20.564Z,2.76
2023-03-06T19:08:49.217Z,2.72
2023-03-06T19:11:18.365Z,2.73
2023-03-06T19:13:46.327Z,2.76
2023-03-06T19:16:18.759Z,2.76
2023-03-06T19:18:46.978Z,2.75
2023-03-06T19:21:16.386Z,2.72
2023-03-06T19:23:44.832Z,2.74
2023-03-06T19:26:13.107Z,2.76
2023-03-06T19:28:41.598Z,2.78
2023-03-06T19:31:09.804Z,2.78
2023-03-06T19:33:38.249Z,2.84
2023-03-06T19:36:08.073Z,2.85
2023-03-06T19:38:36.654Z,2.85
2023-03-06T19:41:04.934Z,2.85
2023-03-06T19:43:33.132Z,2.87
2023-03-06T19:46:01.211Z,2.85
2023-03-06T19:48:29.357Z,2.88
2023-03-06T19:50:57.432Z,2.89
2023-03-06T19:53:25.735Z,2.87
2023-03-06T19:56:01.975Z,2.87
2023-03-06T19:58:29.896Z,2.87
2023-03-06T20:01:08.587Z,2.87
2023-03-06T20:03:36.948Z,2.88
2023-03-06T20:06:09.244Z,2.83
2023-03-06T20:08:37.509Z,2.83
2023-03-06T20:11:05.667Z,2.81
2023-03-06T20:13:33.596Z,2.81
2023-03-06T20:16:04.881Z,2.83
2023-03-06T20:18:32.952Z,2.81
2023-03-06T20:21:01.977Z,2.74
2023-03-06T20:23:30.841Z,2.75
2023-03-06T20:26:06.002Z,2.71
2023-03-06T20:28:34.152Z,2.68
2023-03-06T20:31:11.289Z,2.67
2023-03-06T20:33:40.048Z,2.69
2023-03-06T20:36:15.766Z,2.67
2023-03-06T20:38:44.285Z,2.71
2023-03-06T20:41:17.177Z,2.70
2023-03-06T20:43:45.231Z,2.71
2023-03-06T20:46:14.140Z,2.74
2023-03-06T20:48:42.809Z,2.73
2023-03-06T20:51:18.696Z,2.71
2023-03-06T20:53:48.201Z,2.74
2023-03-06T20:56:17.776Z,2.75
2023-03-06T20:58:45.821Z,2.74
2023-03-06T21:01:26.434Z,2.78
2023-03-06T21:03:55.024Z,2.78
2023-03-06T21:06:23.481Z,2.82
2023-03-06T21:08:51.561Z,2.84
2023-03-06T21:11:19.920Z,2.80
2023-03-06T21:13:47.966Z,2.80
2023-03-06T21:16:18.279Z,2.80
2023-03-06T21:18:46.953Z,2.79
2023-03-06T21:21:19.401Z,2.79
2023-03-06T21:23:48.415Z,2.76
2023-03-06T21:26:21.000Z,2.80
2023-03-06T21:28:49.581Z,2.88
2023-03-06T21:31:19.136Z,2.92
2023-03-06T21:33:48.808Z,2.97
2023-03-06T21:36:18.890Z,3.02
2023-03-06T21:38:47.811Z,3.04
2023-03-06T21:41:26.128Z,3.00
2023-03-06T21:43:58.588Z,2.97
2023-03-06T21:46:27.420Z,2.93
2023-03-06T21:48:56.077Z,2.91
2023-03-06T21:51:25.469Z,2.94
2023-03-06T21:53:54.206Z,2.93
2023-03-06T21:56:24.073Z,2.88
2023-03-06T21:58:52.681Z,2.82
2023-03-06T22:01:22.897Z,2.87
2023-03-06T22:03:51.623Z,2.95
2023-03-06T22:06:21.358Z,2.99
2023-03-06T22:08:49.682Z,3.04
2023-03-06T22:11:19.072Z,3.02
2023-03-06T22:13:48.403Z,3.00
2023-03-06T22:16:18.648Z,3.04
2023-03-06T22:18:47.675Z,3.08
2023-03-06T22:21:16.923Z,3.12
2023-03-06T22:23:49.060Z,3.15
2023-03-06T22:26:17.438Z,3.17
2023-03-06T22:28:45.838Z,3.18
2023-03-06T22:31:15.941Z,3.22
2023-03-06T22:33:44.162Z,3.24
2023-03-06T22:36:13.525Z,3.27
2023-03-06T22:38:42.817Z,3.31
2023-03-06T22:41:11.512Z,3.37
2023-03-06T22:43:39.883Z,3.36
2023-03-06T22:46:09.681Z,3.37
2023-03-06T22:48:38.500Z,3.33
2023-03-06T22:51:08.003Z,3.28
2023-03-06T22:53:36.111Z,3.30
2023-03-06T22:56:05.194Z,3.30
2023-03-06T22:58:40.507Z,3.25
2023-03-06T23:01:13.101Z,3.23
2023-03-06T23:03:42.846Z,3.19
2023-03-06T23:06:15.388Z,3.17
2023-03-06T23:08:43.971Z,3.21
2023-03-06T23:11:14.322Z,3.26
2023-03-06T23:14:01.179Z,3.30
2023-03-06T23:16:48.741Z,3.30
2023-03-06T23:19:35.657Z,3.27
2023-03-06T23:22:22.984Z,3.29
2023-03-06T23:25:10.162Z,3.32
2023-03-06T23:27:38.183Z,3.36
2023-03-06T23:30:06.629Z,3.36
2023-03-06T23:32:35.123Z,3.37
2023-03-06T23:35:03.445Z,3.38
2023-03-06T23:37:31.626Z,3.36
2023-03-06T23:39:59.799Z,3.37
2023-03-06T23:42:27.910Z,3.38
2023-03-06T23:44:56.153Z,3.37
2023-03-06T23:47:24.319Z,3.31
2023-03-06T23:49:52.248Z,3.28
2023-03-06T23:52:20.350Z,3.27
2023-03-06T23:54:49.441Z,3.28
2023-03-06T23:57:17.347Z,3.27
2023-03-06T23:59:45.485Z,3.29
